Terminal Aerodrome Forecast
Issued by NWS

Home | Current Version | Previous Version | Text Only | Print | Product List | Glossary On
Versions: 1 2 3 4 5 6 7 8 9 10 11 12 13 14 15 16
000
FTUS41 KBGM 240541
TAFELM
TAF
KELM 240541Z 2406/2506 24005KT P6SM BKN025 OVC100
     FM240700 28005KT 5SM BR OVC012
      TEMPO 2407/2411 5SM -SHRA BR OVC008
     FM241200 29010KT P6SM SCT040
     FM241600 28010G18KT P6SM SCT150
     FM250000 VRB04KT P6SM SCT200
      AMD NOT SKED=

USA.gov is the U.S. government's official web portal to all federal, state and local government web resources and services.